Terminal Aerodrome Forecast
Issued by NWS

Home | Current Version | Previous Version | Text Only | Print | Product List | Glossary On
Versions: 1 2 3 4 5 6 7 8 9 10 11 12 13 14 15 16
000
FTUS41 KGYX 012337
TAFPSM
TAF
KPSM 012337Z 0200/0224 19006KT 3SM -SN OVC025
      TEMPO 0200/0204 3/4SM -SN BKN015
     FM020600 23005KT P6SM BKN025
     FM021200 28008KT P6SM FEW025
     FM021500 30015G23KT P6SM SKC=

USA.gov is the U.S. government's official web portal to all federal, state and local government web resources and services.